Copper Harbor, Michigan
Current Conditions -  °F | °C
As of 2:53 AM on Saturday 29 Nov 2014 (Local Time) from KCMX Reporting Station
Overcast Overcast  
Wind Chill: 19°   Ceiling: 4000
Heat Index: 19°   Visibility: 10mi
Dew Point: 13°   Wind: 3mph
Humidity: 77%   Direction: NA
Pressure: 29.72"   Gusts: NA
Location:  47.47°N, 87.89°W
Report Text: KCMX 290753Z AUTO VRB03KT 10SM OVC040 M07/M11 A2972 RMK AO2 SLP085 T10721106
Loading
Personal Weather Stations






























Interactive Weather Map New forecast layout! Learn more

10-Day Weather Forecast

Advertisements
Track Severe Weather on mobile